Etusivu
METAR-TAF:

METAR-TAF

Lentoasemat :

Rovaniemen lentoasema

Rovaniemi, Suomi

Leveyspiiri: 66-34N, Pituuspiiri: 025-50E, korkeus merenpinnasta: 197 m

Tämänhetkinen sää

Tämä raportti tehtiin 17 minuuttia sitten, kello 19.50 UTC
Tuuli 9 kn luoteesta
Lämpötila -2°C
Kosteus 74%
Ilmanpaine 1019 hPa
Näkyvyys 10 km tai enemmän
ei pilviä alle 1500 m:ssä eikä cumulonimbus-pilviä

METAR: EFRO 211950Z AUTO 32009KT CAVOK M02/M06 Q1019

Aika: 22:07 (20:07 UTC)

Sääennuste

Tämä raportti tehtiin 2 tuntia ja 42 minuuttia sitten, kello 17.25 UTC
Ennuste voimassa 21. päivästä klo 18 UTC - 22. päivään klo 18 UTC
Tuuli 8 kn lännestä/luoteesta
Näkyvyys 10 km tai enemmän
ei pilviä alle 1500 m:ssä eikä cumulonimbus-pilviä

TAF: EFRO 211725Z 2118/2218 29008KT CAVOK

Säähavainnot ja -ennusteet yli 4000 lentoasemalta (METAR- ja TAF-raportit).

Käytössä olevat sääasemat on merkitty karttaan keltaisilla ja punaisilla pisteillä.

Aseta hiiri pisteen päälle nähdäksesi sääaseman nimen.

Klikkaa sitten nähdäksesi säähavainnot ja -ennusteet.

Kartan vaihtaminen: klikkaa mustalla rastilla varustettuja vihreitä pisteitä, niin voit zoomata sisään; viivalla varustettua vihreää pistettä, niin voit zoomata ulos tai vihreitä nuolia, niin pääset viereisille kartoille.


METAR-TAF: